createdAt,value
2019-05-02T05:19:00.087Z,13.70
2019-05-02T05:21:30.054Z,13.50
2019-05-02T05:24:18.766Z,13.50
2019-05-02T05:26:51.417Z,13.70
2019-05-02T05:29:23.259Z,14.00
2019-05-02T05:31:55.102Z,14.30
2019-05-02T05:34:30.717Z,14.40
2019-05-02T05:36:58.196Z,14.80
2019-05-02T05:41:58.000Z,15.20
2019-05-02T05:44:32.484Z,15.60
2019-05-02T05:46:59.510Z,16.00
2019-05-02T05:49:30.332Z,15.80
2019-05-02T05:52:03.706Z,16.10
2019-05-02T05:54:33.012Z,17.10
2019-05-02T05:57:04.285Z,17.10
2019-05-02T05:59:41.424Z,17.60
2019-05-02T06:02:14.749Z,18.00
2019-05-02T06:04:47.350Z,17.70
2019-05-02T06:07:20.065Z,18.10
2019-05-02T06:09:53.381Z,18.50
2019-05-02T06:12:26.134Z,19.00
2019-05-02T06:14:56.433Z,18.50
2019-05-02T06:17:28.466Z,19.40
2019-05-02T06:20:02.064Z,19.30
2019-05-02T06:22:32.703Z,19.60
2019-05-02T06:25:09.354Z,20.90
2019-05-02T06:27:39.450Z,20.90
2019-05-02T06:30:09.917Z,20.90
2019-05-02T06:32:40.095Z,20.00
2019-05-02T06:35:10.084Z,21.10
2019-05-02T07:10:07.750Z,19.60
2019-05-02T07:12:38.698Z,19.80
2019-05-02T07:15:20.410Z,20.40
2019-05-02T07:17:51.837Z,21.60
2019-05-02T07:20:21.666Z,21.90
2019-05-02T07:22:51.971Z,20.40
2019-05-02T07:25:21.772Z,20.50
2019-05-02T07:27:51.499Z,22.30
2019-05-02T07:30:21.402Z,22.20
2019-05-02T07:32:51.242Z,21.50
2019-05-02T07:37:51.687Z,24.10
2019-05-02T07:40:21.503Z,22.70
2019-05-02T07:42:51.267Z,21.70
2019-05-02T07:45:20.997Z,22.50
2019-05-02T07:47:52.784Z,22.10
2019-05-02T07:55:20.589Z,21.60
2019-05-02T07:57:50.704Z,21.40
2019-05-02T08:00:21.672Z,21.10
2019-05-02T08:02:51.484Z,21.80
2019-05-02T08:05:23.751Z,22.00
2019-05-02T08:07:55.030Z,23.00
2019-05-02T08:10:24.682Z,22.60
2019-05-02T08:12:54.480Z,22.00
2019-05-02T08:17:55.235Z,21.40
2019-05-02T08:20:25.312Z,22.30
2019-05-02T08:22:55.067Z,22.50
2019-05-02T08:25:24.843Z,22.10
2019-05-02T08:28:16.044Z,23.60
2019-05-02T08:30:50.648Z,23.40
2019-05-02T08:33:20.389Z,22.50
2019-05-02T08:35:50.145Z,21.50
2019-05-02T08:38:19.934Z,21.70
2019-05-02T08:40:49.746Z,22.30
2019-05-02T08:43:19.654Z,22.50
2019-05-02T08:45:50.593Z,21.40
2019-05-02T08:48:22.686Z,21.60
2019-05-02T08:50:52.084Z,21.90
2019-05-02T08:53:22.265Z,21.20
2019-05-02T08:55:52.307Z,21.70
2019-05-02T08:58:22.075Z,21.70
2019-05-02T09:00:53.965Z,21.70
2019-05-02T09:03:25.403Z,21.30
2019-05-02T09:06:05.349Z,21.40
2019-05-02T09:08:30.395Z,21.10
2019-05-02T09:13:33.004Z,21.00
2019-05-02T09:16:15.440Z,21.20
2019-05-02T09:18:53.813Z,21.00
2019-05-02T09:21:22.126Z,20.20
2019-05-02T09:28:56.210Z,20.20
2019-05-02T09:36:25.829Z,19.10
2019-05-02T09:46:26.516Z,19.50
2019-05-02T09:48:57.132Z,19.40
2019-05-02T09:51:28.119Z,19.60
2019-05-02T09:56:30.163Z,19.20
2019-05-02T09:59:06.314Z,19.00
2019-05-02T10:06:43.051Z,19.10
2019-05-02T10:09:13.112Z,19.20
2019-05-02T10:14:13.149Z,19.60
2019-05-02T10:16:43.312Z,19.60
2019-05-02T10:19:13.683Z,19.40
2019-05-02T10:21:46.941Z,19.60
2019-05-02T10:24:15.360Z,19.00
2019-05-02T10:26:45.178Z,19.00
2019-05-02T10:29:15.211Z,18.90
2019-05-02T10:31:45.338Z,18.90
2019-05-02T10:39:16.041Z,19.40
2019-05-02T10:41:46.052Z,18.80
2019-05-02T10:46:55.810Z,19.00
2019-05-02T10:49:50.104Z,18.90
2019-05-02T10:52:21.556Z,18.80
2019-05-02T10:54:52.834Z,18.90
2019-05-02T10:57:23.123Z,18.90
2019-05-02T10:59:55.785Z,19.50
2019-05-02T11:02:55.364Z,19.30
2019-05-02T11:05:26.750Z,19.10
2019-05-02T11:08:03.678Z,18.80
2019-05-02T11:10:29.135Z,18.60
2019-05-02T11:13:09.983Z,18.80
2019-05-02T11:16:03.759Z,18.40
2019-05-02T11:18:49.011Z,18.60
2019-05-02T11:58:48.191Z,18.80
2019-05-02T12:01:19.731Z,18.70
2019-05-02T12:03:52.441Z,18.60
2019-05-02T12:06:23.146Z,18.60
2019-05-02T12:08:53.184Z,18.60
2019-05-02T12:11:23.157Z,18.40
2019-05-02T12:13:56.974Z,18.40
2019-05-02T15:03:03.348Z,17.60
2019-05-02T15:23:07.236Z,17.40
2019-05-02T15:25:42.258Z,17.40
2019-05-02T15:41:09.524Z,17.30
2019-05-02T15:43:39.349Z,17.30
2019-05-02T15:46:15.681Z,17.30
2019-05-02T15:48:43.682Z,17.30
2019-05-02T15:53:52.466Z,17.30
2019-05-02T15:56:21.620Z,17.30
2019-05-02T15:58:52.143Z,17.40
2019-05-02T16:01:46.016Z,17.40
2019-05-02T16:14:13.566Z,17.30
2019-05-02T16:16:45.250Z,17.10
2019-05-02T16:19:24.682Z,17.10
2019-05-02T16:21:54.487Z,17.10
2019-05-02T16:24:24.677Z,17.00
2019-05-02T16:26:57.132Z,17.00
2019-05-02T16:29:28.793Z,17.00
2019-05-02T16:32:15.132Z,17.10
2019-05-02T16:34:59.268Z,17.10
2019-05-02T16:37:29.109Z,17.00
2019-05-02T16:39:58.874Z,16.90
2019-05-02T16:42:29.008Z,16.80
2019-05-02T16:44:58.975Z,16.90
2019-05-02T16:47:28.831Z,16.80
2019-05-02T16:49:58.668Z,16.90
2019-05-02T16:52:28.441Z,16.80
2019-05-02T16:54:58.489Z,16.90
2019-05-02T16:57:28.338Z,17.00
2019-05-02T17:00:01.156Z,17.00
2019-05-02T17:02:29.687Z,17.10
2019-05-02T17:05:00.173Z,17.10
2019-05-02T17:07:53.012Z,16.80
2019-05-02T17:10:53.816Z,16.60
2019-05-02T17:13:22.748Z,16.60
2019-05-02T17:15:52.662Z,16.70
2019-05-02T17:18:22.932Z,16.70
2019-05-02T17:20:56.680Z,16.80
2019-05-02T17:23:24.353Z,16.70
2019-05-02T17:25:54.167Z,16.50
2019-05-02T17:28:24.018Z,16.40
2019-05-02T17:30:53.914Z,16.30
2019-05-02T17:33:23.769Z,16.10
2019-05-02T17:35:54.393Z,16.00
2019-05-02T17:38:29.084Z,15.90
2019-05-02T17:40:59.341Z,15.80
2019-05-02T17:43:27.187Z,15.70
2019-05-02T17:45:56.973Z,15.70
2019-05-02T17:48:26.715Z,15.70
2019-05-02T17:51:22.728Z,15.70
2019-05-02T17:53:52.628Z,15.60
2019-05-02T17:56:23.242Z,15.40
2019-05-02T17:58:58.195Z,15.30
2019-05-02T18:01:35.269Z,15.10
2019-05-02T18:04:06.791Z,15.00
2019-05-02T18:06:37.248Z,14.90
2019-05-02T18:09:08.977Z,14.80
2019-05-02T18:11:38.756Z,14.80
2019-05-02T18:14:18.637Z,14.80
2019-05-02T18:16:41.860Z,14.70
2019-05-02T18:19:11.306Z,14.60
2019-05-02T18:21:41.898Z,14.50
2019-05-02T18:24:12.590Z,14.50
2019-05-02T18:26:42.671Z,14.50
2019-05-02T18:29:15.274Z,14.40
2019-05-02T18:31:47.383Z,14.30
2019-05-02T18:34:23.707Z,14.20
2019-05-02T18:36:46.745Z,14.10
2019-05-02T18:39:16.631Z,14.00
2019-05-02T18:41:46.551Z,13.90
2019-05-02T18:44:17.359Z,14.00
2019-05-02T18:46:47.812Z,13.90
2019-05-02T18:49:21.949Z,13.90
2019-05-02T18:51:55.612Z,13.80
2019-05-02T18:54:21.703Z,13.80
2019-05-02T18:56:55.247Z,13.80
2019-05-02T18:59:27.015Z,13.70
2019-05-02T19:01:56.557Z,13.70
2019-05-02T19:04:34.877Z,13.80
2019-05-02T19:06:57.534Z,14.00
2019-05-02T19:09:30.036Z,13.80
2019-05-02T19:12:05.253Z,13.70
2019-05-02T19:14:30.011Z,13.90
2019-05-02T19:17:03.610Z,14.10
2019-05-02T19:19:32.959Z,14.20
2019-05-02T19:22:07.274Z,14.20
2019-05-02T19:24:36.482Z,14.10
2019-05-02T19:27:06.100Z,14.10
2019-05-02T19:29:35.800Z,14.00
2019-05-02T19:32:08.632Z,13.80
2019-05-02T19:34:38.454Z,13.60
2019-05-02T19:37:08.230Z,13.60
2019-05-02T19:39:39.084Z,13.40
2019-05-02T19:42:12.140Z,13.30
2019-05-02T19:44:42.066Z,13.30
2019-05-02T19:47:13.689Z,13.40
2019-05-02T19:49:47.202Z,13.30
2019-05-02T19:52:14.856Z,13.20
2019-05-02T19:54:44.599Z,13.10
2019-05-02T19:57:24.862Z,12.90
2019-05-02T19:59:48.946Z,12.90
2019-05-02T20:02:22.729Z,12.90
2019-05-02T20:04:52.454Z,12.70
2019-05-02T20:07:25.530Z,12.60
2019-05-02T20:09:55.272Z,12.50
2019-05-02T20:12:25.083Z,12.40
2019-05-02T20:14:54.879Z,12.30
2019-05-02T20:17:24.663Z,12.20
2019-05-02T20:19:57.707Z,12.30
2019-05-02T20:22:28.294Z,12.30
2019-05-02T20:25:01.221Z,12.40
2019-05-02T20:27:32.948Z,12.50
2019-05-02T20:30:04.145Z,12.50
2019-05-02T20:32:39.424Z,12.30
2019-05-02T20:35:09.180Z,12.20
2019-05-02T20:37:41.974Z,12.20
2019-05-02T20:40:28.387Z,12.10
2019-05-02T20:42:58.199Z,11.90
2019-05-02T20:45:28.043Z,11.70
2019-05-02T20:47:58.307Z,11.70
2019-05-02T20:50:28.052Z,11.70
2019-05-02T20:52:58.014Z,11.70
2019-05-02T20:55:27.714Z,11.70
2019-05-02T20:57:57.515Z,11.60
2019-05-02T21:00:29.270Z,11.80
2019-05-02T21:02:59.139Z,11.90
2019-05-02T21:05:34.951Z,11.90
2019-05-02T21:08:36.063Z,11.80
2019-05-02T21:11:05.938Z,11.60
2019-05-02T21:13:35.724Z,11.60
2019-05-02T21:16:05.908Z,11.60
2019-05-02T21:18:35.653Z,11.50
2019-05-02T21:21:05.572Z,11.40
2019-05-02T21:23:43.785Z,11.40
2019-05-02T21:26:06.950Z,11.40
2019-05-02T21:28:36.719Z,11.40
2019-05-02T21:31:08.211Z,11.30
2019-05-02T21:33:39.651Z,11.40
2019-05-02T21:36:11.793Z,11.40
2019-05-02T21:38:42.811Z,11.40
2019-05-02T21:41:12.826Z,11.50
2019-05-02T21:43:42.734Z,11.40
2019-05-02T21:46:12.434Z,11.30
2019-05-02T21:48:42.195Z,11.20
2019-05-02T21:51:42.945Z,11.20
2019-05-02T21:54:40.573Z,11.10
2019-05-02T21:57:13.881Z,11.10
2019-05-02T21:59:43.614Z,11.00
2019-05-02T22:02:13.964Z,11.00
2019-05-02T22:04:43.683Z,11.00
2019-05-02T22:07:13.535Z,11.00
2019-05-02T22:09:43.306Z,11.00
2019-05-02T22:12:13.087Z,10.70
2019-05-02T22:14:42.808Z,10.50
2019-05-02T22:17:12.768Z,10.50
2019-05-02T22:19:42.650Z,10.50
2019-05-02T22:22:12.438Z,10.50
2019-05-02T22:24:42.267Z,10.50
2019-05-02T22:27:12.435Z,10.30
2019-05-02T22:29:43.047Z,10.20
2019-05-02T22:32:12.907Z,10.30
2019-05-02T22:34:45.141Z,10.40
2019-05-02T22:37:15.562Z,10.50
2019-05-02T22:39:53.165Z,10.50
2019-05-02T22:42:23.196Z,10.40
2019-05-02T22:44:52.918Z,10.50
2019-05-02T22:47:22.818Z,10.40
2019-05-02T22:49:52.571Z,10.30
2019-05-02T22:52:22.278Z,10.40
2019-05-02T22:54:52.267Z,10.20
2019-05-02T22:57:22.664Z,10.30
2019-05-02T22:59:52.555Z,10.40
2019-05-02T23:02:22.325Z,10.50
2019-05-02T23:04:52.783Z,10.50
2019-05-02T23:07:22.707Z,10.40
2019-05-02T23:09:52.895Z,10.30
2019-05-02T23:12:25.050Z,10.30
2019-05-02T23:14:54.045Z,10.20
2019-05-02T23:17:23.848Z,10.20
2019-05-02T23:19:53.501Z,10.10
2019-05-02T23:22:23.215Z,10.00
2019-05-02T23:25:07.561Z,10.00
2019-05-02T23:27:44.443Z,10.10
2019-05-02T23:30:17.246Z,9.90
2019-05-02T23:32:46.949Z,9.80
2019-05-02T23:35:16.759Z,9.70
2019-05-02T23:37:46.480Z,9.80
2019-05-02T23:40:16.576Z,9.90
2019-05-02T23:42:46.312Z,9.90
2019-05-02T23:45:16.086Z,9.90
2019-05-02T23:47:45.792Z,9.80
2019-05-02T23:50:15.486Z,9.80
2019-05-02T23:52:45.198Z,9.80
2019-05-02T23:55:14.977Z,9.90
2019-05-02T23:57:44.674Z,9.80
